createdAt,value
2022-07-27T00:01:18.991Z,100.00
2022-07-27T00:03:47.657Z,100.00
2022-07-27T00:06:16.029Z,100.00
2022-07-27T00:08:44.041Z,100.00
2022-07-27T00:11:14.132Z,100.00
2022-07-27T00:13:42.311Z,100.00
2022-07-27T00:16:10.526Z,100.00
2022-07-27T00:18:38.705Z,100.00
2022-07-27T00:21:07.005Z,100.00
2022-07-27T00:23:35.019Z,100.00
2022-07-27T00:26:03.096Z,100.00
2022-07-27T00:28:31.012Z,100.00
2022-07-27T00:30:59.293Z,100.00
2022-07-27T00:33:27.419Z,100.00
2022-07-27T00:35:55.740Z,100.00
2022-07-27T00:38:23.653Z,100.00
2022-07-27T00:40:51.610Z,100.00
2022-07-27T00:43:20.091Z,100.00
2022-07-27T00:45:48.122Z,100.00
2022-07-27T00:48:16.091Z,100.00
2022-07-27T00:50:46.349Z,100.00
2022-07-27T00:53:14.883Z,100.00
2022-07-27T00:55:42.983Z,100.00
2022-07-27T00:58:11.069Z,100.00
2022-07-27T01:00:39.180Z,100.00
2022-07-27T01:03:08.768Z,100.00
2022-07-27T01:05:42.571Z,100.00
2022-07-27T01:08:15.244Z,100.00
2022-07-27T01:10:44.820Z,100.00
2022-07-27T01:13:16.051Z,100.00
2022-07-27T01:15:44.773Z,100.00
2022-07-27T01:18:27.266Z,100.00
2022-07-27T01:20:56.933Z,100.00
2022-07-27T01:23:25.973Z,100.00
2022-07-27T01:25:55.166Z,100.00
2022-07-27T01:28:23.660Z,100.00
2022-07-27T01:30:53.450Z,100.00
2022-07-27T01:33:28.136Z,100.00
2022-07-27T01:35:57.976Z,100.00
2022-07-27T01:38:26.771Z,100.00
2022-07-27T01:40:55.715Z,100.00
2022-07-27T01:43:24.293Z,100.00
2022-07-27T01:45:52.365Z,100.00
2022-07-27T01:48:21.148Z,100.00
2022-07-27T01:50:51.264Z,100.00
2022-07-27T01:53:21.201Z,100.00
2022-07-27T01:55:51.011Z,100.00
2022-07-27T01:58:19.391Z,100.00
2022-07-27T02:00:49.139Z,100.00
2022-07-27T02:03:17.250Z,100.00
2022-07-27T02:05:45.245Z,100.00
2022-07-27T02:08:13.742Z,100.00
2022-07-27T02:11:04.030Z,100.00
2022-07-27T02:13:31.949Z,100.00
2022-07-27T02:16:00.572Z,100.00
2022-07-27T02:18:33.561Z,100.00
2022-07-27T02:21:06.409Z,100.00
2022-07-27T02:23:54.452Z,100.00
2022-07-27T02:26:22.510Z,100.00
2022-07-27T02:28:50.543Z,100.00
2022-07-27T02:31:18.713Z,100.00
2022-07-27T02:33:46.549Z,100.00
2022-07-27T02:36:14.447Z,100.00
2022-07-27T02:38:42.321Z,100.00
2022-07-27T02:41:10.232Z,100.00
2022-07-27T02:43:38.135Z,100.00
2022-07-27T02:46:06.252Z,100.00
2022-07-27T02:48:34.151Z,100.00
2022-07-27T02:51:02.240Z,100.00
2022-07-27T02:53:30.866Z,100.00
2022-07-27T02:55:58.880Z,100.00
2022-07-27T02:58:26.858Z,100.00
2022-07-27T03:00:58.310Z,100.00
2022-07-27T03:03:36.523Z,100.00
2022-07-27T03:06:15.719Z,100.00
2022-07-27T03:08:43.729Z,100.00
2022-07-27T03:11:11.598Z,100.00
2022-07-27T03:13:39.485Z,100.00
2022-07-27T03:16:08.082Z,100.00
2022-07-27T03:18:36.210Z,100.00
2022-07-27T03:21:04.695Z,100.00
2022-07-27T03:23:34.824Z,100.00
2022-07-27T03:26:02.710Z,100.00
2022-07-27T03:28:30.525Z,100.00
2022-07-27T03:30:58.834Z,100.00
2022-07-27T03:33:26.777Z,100.00
2022-07-27T03:35:54.653Z,99.98
2022-07-27T03:38:23.436Z,99.88
2022-07-27T03:40:52.043Z,99.59
2022-07-27T03:43:19.885Z,98.91
2022-07-27T03:45:48.059Z,97.77
2022-07-27T03:48:15.942Z,97.81
2022-07-27T03:50:43.898Z,96.60
2022-07-27T03:53:12.350Z,96.86
2022-07-27T03:55:40.319Z,97.27
2022-07-27T03:58:08.207Z,97.38
2022-07-27T04:00:36.068Z,97.47
2022-07-27T04:03:04.240Z,97.21
2022-07-27T04:05:32.241Z,97.21
2022-07-27T04:08:00.155Z,96.66
2022-07-27T04:10:31.475Z,95.46
2022-07-27T04:13:00.144Z,95.69
2022-07-27T04:15:29.501Z,95.42
2022-07-27T04:17:57.876Z,94.99
2022-07-27T04:20:26.268Z,93.39
2022-07-27T04:22:54.608Z,93.51
2022-07-27T04:25:23.337Z,92.53
2022-07-27T04:27:51.372Z,92.31
2022-07-27T04:30:19.475Z,92.23
2022-07-27T04:32:47.980Z,91.44
2022-07-27T04:35:16.440Z,88.64
2022-07-27T04:37:59.142Z,87.92
2022-07-27T04:40:35.088Z,86.74
2022-07-27T04:43:05.074Z,85.74
2022-07-27T04:45:33.557Z,86.49
2022-07-27T04:48:08.884Z,86.01
2022-07-27T04:50:44.123Z,85.01
2022-07-27T04:53:13.509Z,82.63
2022-07-27T04:55:43.426Z,82.13
2022-07-27T04:58:12.298Z,81.75
2022-07-27T05:00:40.353Z,80.75
2022-07-27T05:03:08.426Z,79.45
2022-07-27T05:05:36.842Z,79.02
2022-07-27T05:08:05.194Z,79.74
2022-07-27T05:10:33.162Z,80.53
2022-07-27T05:13:01.799Z,82.44
2022-07-27T05:15:30.209Z,83.13
2022-07-27T05:18:19.186Z,79.62
2022-07-27T05:20:47.375Z,78.58
2022-07-27T05:23:18.489Z,78.91
2022-07-27T05:25:46.668Z,80.53
2022-07-27T05:28:14.793Z,80.25
2022-07-27T05:30:42.818Z,79.00
2022-07-27T05:33:10.780Z,78.98
2022-07-27T05:35:38.764Z,77.39
2022-07-27T05:38:07.045Z,76.10
2022-07-27T05:40:35.152Z,74.93
2022-07-27T05:43:03.165Z,74.80
2022-07-27T05:45:31.117Z,75.67
2022-07-27T05:48:00.000Z,75.96
2022-07-27T05:50:28.105Z,74.27
2022-07-27T05:52:58.915Z,72.23
2022-07-27T05:55:27.070Z,67.61
2022-07-27T05:57:55.791Z,64.73
2022-07-27T06:00:23.801Z,63.29
2022-07-27T06:02:52.044Z,59.28
2022-07-27T06:05:20.269Z,55.72
2022-07-27T06:08:00.621Z,56.91
2022-07-27T06:10:32.558Z,55.06
2022-07-27T06:13:03.499Z,52.71
2022-07-27T06:15:31.651Z,51.24
2022-07-27T06:17:59.602Z,49.95
2022-07-27T06:20:27.746Z,49.78
2022-07-27T06:23:00.625Z,51.01
2022-07-27T06:25:35.226Z,52.36
2022-07-27T06:28:06.238Z,52.72
2022-07-27T06:30:34.554Z,50.42
2022-07-27T06:33:06.895Z,51.21
2022-07-27T06:35:38.916Z,49.97
2022-07-27T06:38:09.635Z,49.37
2022-07-27T06:40:37.971Z,46.25
2022-07-27T06:43:06.082Z,44.73
2022-07-27T06:45:34.172Z,44.54
2022-07-27T06:48:02.340Z,43.94
2022-07-27T06:50:30.430Z,43.14
2022-07-27T06:52:58.560Z,43.72
2022-07-27T06:55:26.944Z,42.02
2022-07-27T06:57:55.456Z,41.29
2022-07-27T07:00:23.865Z,41.97
2022-07-27T07:03:04.796Z,41.37
2022-07-27T07:05:38.460Z,41.03
2022-07-27T07:08:11.930Z,41.92
2022-07-27T07:10:42.054Z,42.14
2022-07-27T07:13:10.427Z,42.18
2022-07-27T07:15:41.017Z,41.37
2022-07-27T07:18:11.675Z,41.40
2022-07-27T07:20:40.700Z,40.60
2022-07-27T07:23:09.719Z,39.62
2022-07-27T07:25:39.537Z,39.98
2022-07-27T07:28:08.199Z,39.56
2022-07-27T07:30:36.658Z,37.55
2022-07-27T07:33:05.255Z,37.56
2022-07-27T07:35:33.554Z,39.29
2022-07-27T07:38:01.423Z,39.34
2022-07-27T07:40:43.331Z,38.07
2022-07-27T07:43:14.156Z,38.31
2022-07-27T07:45:47.388Z,36.38
2022-07-27T07:48:21.910Z,35.93
2022-07-27T07:50:53.471Z,36.97
2022-07-27T07:53:24.798Z,38.74
2022-07-27T07:55:57.646Z,37.28
2022-07-27T07:58:25.659Z,34.87
2022-07-27T08:00:53.625Z,35.17
2022-07-27T08:03:22.447Z,35.34
2022-07-27T08:05:51.715Z,35.73
2022-07-27T08:08:19.910Z,36.83
2022-07-27T08:10:52.780Z,35.30
2022-07-27T08:13:22.505Z,34.50
2022-07-27T08:15:52.922Z,33.81
2022-07-27T08:18:21.412Z,33.30
2022-07-27T08:20:49.751Z,34.23
2022-07-27T08:23:17.866Z,33.40
2022-07-27T08:25:46.638Z,32.80
2022-07-27T08:28:15.183Z,32.72
2022-07-27T08:30:44.796Z,32.88
2022-07-27T08:33:13.052Z,31.52
2022-07-27T08:35:41.298Z,31.63
2022-07-27T08:38:09.938Z,31.69
2022-07-27T08:40:42.215Z,32.24
2022-07-27T08:43:21.800Z,30.30
2022-07-27T08:45:56.367Z,30.88
2022-07-27T08:48:26.532Z,30.72
2022-07-27T08:50:55.861Z,30.97
2022-07-27T08:53:25.660Z,29.79
2022-07-27T08:55:57.159Z,29.78
2022-07-27T08:58:25.129Z,30.58
2022-07-27T09:00:53.456Z,32.02
2022-07-27T09:03:23.463Z,31.89
2022-07-27T09:05:55.977Z,31.34
2022-07-27T09:08:30.944Z,31.23
2022-07-27T09:11:01.154Z,30.93
2022-07-27T09:13:32.170Z,31.56
2022-07-27T09:16:19.730Z,30.91
2022-07-27T09:18:49.237Z,30.92
2022-07-27T09:21:23.412Z,30.95
2022-07-27T09:23:53.474Z,31.33
2022-07-27T09:26:32.418Z,32.37
2022-07-27T09:29:14.633Z,31.88
2022-07-27T09:31:48.871Z,31.08
2022-07-27T09:34:32.042Z,31.68
2022-07-27T09:37:05.660Z,30.90
2022-07-27T09:39:34.496Z,30.34
2022-07-27T09:42:03.006Z,31.63
2022-07-27T09:44:42.465Z,32.64
2022-07-27T09:47:28.007Z,32.95
2022-07-27T09:50:17.824Z,33.21
2022-07-27T09:52:47.194Z,31.17
2022-07-27T09:55:19.815Z,32.78
2022-07-27T09:57:56.228Z,33.58
2022-07-27T10:00:26.405Z,33.52
2022-07-27T10:02:55.676Z,31.39
2022-07-27T10:05:24.292Z,31.78
2022-07-27T10:07:54.737Z,31.68
2022-07-27T10:10:23.733Z,30.93
2022-07-27T10:12:55.655Z,32.41
2022-07-27T10:15:25.263Z,33.50
2022-07-27T10:18:01.766Z,33.19
2022-07-27T10:20:31.958Z,31.93
2022-07-27T10:23:00.353Z,33.88
2022-07-27T10:25:37.552Z,32.43
2022-07-27T10:28:20.979Z,32.68
2022-07-27T10:30:54.250Z,32.99
2022-07-27T10:33:54.474Z,32.04
2022-07-27T10:36:31.469Z,32.83
2022-07-27T10:39:07.341Z,33.85
2022-07-27T10:41:40.450Z,33.14
2022-07-27T10:44:23.924Z,32.05
2022-07-27T10:47:02.173Z,32.14
2022-07-27T10:49:40.293Z,32.66
2022-07-27T10:52:49.238Z,32.67
2022-07-27T10:55:32.806Z,35.44
2022-07-27T10:58:03.312Z,34.85
2022-07-27T11:00:55.754Z,36.20
2022-07-27T11:03:29.260Z,36.49
2022-07-27T11:11:50.106Z,35.64
2022-07-27T11:14:19.392Z,34.13
2022-07-27T11:17:47.320Z,31.29
2022-07-27T11:20:04.372Z,30.88
2022-07-27T11:25:30.123Z,31.77
2022-07-27T11:27:58.237Z,32.58
2022-07-27T11:30:28.703Z,32.63
2022-07-27T11:32:56.824Z,32.11
2022-07-27T11:35:24.928Z,32.19
2022-07-27T11:38:01.443Z,31.31
2022-07-27T11:41:07.035Z,32.22
2022-07-27T11:43:45.105Z,31.00
2022-07-27T11:46:26.870Z,31.55
2022-07-27T11:49:16.727Z,31.58
2022-07-27T11:51:48.173Z,31.61
2022-07-27T11:54:31.339Z,30.12
2022-07-27T11:57:06.081Z,28.69
2022-07-27T11:59:39.628Z,29.98
2022-07-27T12:02:20.131Z,29.46
2022-07-27T12:04:51.101Z,32.10
2022-07-27T12:07:30.859Z,33.05
2022-07-27T12:10:04.728Z,33.16
2022-07-27T12:12:35.406Z,34.05
2022-07-27T12:15:44.197Z,34.78
2022-07-27T12:18:03.730Z,35.56
2022-07-27T12:20:34.049Z,35.40
2022-07-27T12:23:09.444Z,36.52
2022-07-27T12:25:39.244Z,36.75
2022-07-27T12:28:11.299Z,36.22
2022-07-27T12:30:42.467Z,36.38
2022-07-27T12:33:28.521Z,35.02
2022-07-27T12:35:57.934Z,34.52
2022-07-27T12:38:37.877Z,32.63
2022-07-27T12:41:06.077Z,32.15
2022-07-27T12:43:34.228Z,32.38
2022-07-27T12:46:13.149Z,32.83
2022-07-27T12:48:43.091Z,32.37
2022-07-27T12:51:11.451Z,33.71
2022-07-27T12:53:39.704Z,35.30
2022-07-27T12:56:10.750Z,35.31
2022-07-27T12:58:38.795Z,35.34
2022-07-27T13:01:07.069Z,34.33
2022-07-27T13:03:37.047Z,33.54
2022-07-27T13:06:10.818Z,33.63
2022-07-27T13:08:41.077Z,33.73
2022-07-27T13:11:09.266Z,34.12
2022-07-27T13:13:37.380Z,34.90
2022-07-27T13:16:05.783Z,35.19
2022-07-27T13:18:33.816Z,34.30
2022-07-27T13:21:01.990Z,34.30
2022-07-27T13:23:30.175Z,34.15
2022-07-27T13:25:58.241Z,32.47
2022-07-27T13:28:26.273Z,32.27
2022-07-27T13:30:54.937Z,33.60
2022-07-27T13:33:23.065Z,33.63
2022-07-27T13:35:59.017Z,34.94
2022-07-27T13:38:29.724Z,36.05
2022-07-27T13:40:57.687Z,35.49
2022-07-27T13:43:25.718Z,34.65
2022-07-27T13:45:53.878Z,35.62
2022-07-27T13:48:22.309Z,36.12
2022-07-27T13:50:50.396Z,35.58
2022-07-27T13:53:19.235Z,35.64
2022-07-27T13:55:47.858Z,35.16
2022-07-27T13:58:15.939Z,32.16
2022-07-27T14:00:44.184Z,31.61
2022-07-27T14:03:12.407Z,33.16
2022-07-27T14:05:49.147Z,35.15
2022-07-27T14:08:21.582Z,36.23
2022-07-27T14:10:51.180Z,35.79
2022-07-27T14:13:22.908Z,33.92
2022-07-27T14:15:54.451Z,32.95
2022-07-27T14:18:28.371Z,32.84
2022-07-27T14:21:04.751Z,33.02
2022-07-27T14:23:35.120Z,33.59
2022-07-27T14:26:05.662Z,32.89
2022-07-27T14:28:34.796Z,33.40
2022-07-27T14:31:06.662Z,32.42
2022-07-27T14:33:36.945Z,33.31
2022-07-27T14:36:06.923Z,35.01
2022-07-27T14:38:37.420Z,35.00
2022-07-27T14:41:06.028Z,33.90
2022-07-27T14:43:34.362Z,32.01
2022-07-27T14:46:02.359Z,30.14
2022-07-27T14:49:03.262Z,30.52
2022-07-27T14:51:18.679Z,31.52
2022-07-27T14:53:46.747Z,31.18
2022-07-27T14:56:15.190Z,31.60
2022-07-27T14:58:43.685Z,33.72
2022-07-27T15:01:12.080Z,36.28
2022-07-27T15:03:40.180Z,37.91
2022-07-27T15:06:08.330Z,38.58
2022-07-27T15:08:36.394Z,38.90
2022-07-27T15:11:04.452Z,37.83
2022-07-27T15:13:32.652Z,35.41
2022-07-27T15:16:00.725Z,31.38
2022-07-27T15:18:32.771Z,31.44
2022-07-27T15:21:03.286Z,33.19
2022-07-27T15:23:42.228Z,33.63
2022-07-27T15:26:12.024Z,35.01
2022-07-27T15:28:42.175Z,36.28
2022-07-27T15:31:11.233Z,36.87
2022-07-27T15:33:39.372Z,37.01
2022-07-27T15:36:07.572Z,36.44
2022-07-27T15:38:36.530Z,37.45
2022-07-27T15:41:05.144Z,37.31
2022-07-27T15:43:34.795Z,37.41
2022-07-27T15:46:03.630Z,37.39
2022-07-27T15:48:32.213Z,37.62
2022-07-27T15:51:00.247Z,38.48
2022-07-27T15:53:29.423Z,38.54
2022-07-27T15:55:58.395Z,39.35
2022-07-27T15:58:26.616Z,40.07
2022-07-27T16:00:58.063Z,40.67
2022-07-27T16:03:28.224Z,40.55
2022-07-27T16:05:58.017Z,40.95
2022-07-27T16:08:27.534Z,41.85
2022-07-27T16:10:55.454Z,42.36
2022-07-27T16:13:25.517Z,42.60
2022-07-27T16:16:12.577Z,43.05
2022-07-27T16:18:40.762Z,42.54
2022-07-27T16:21:08.896Z,41.96
2022-07-27T16:23:36.882Z,41.34
2022-07-27T16:26:06.694Z,40.58
2022-07-27T16:28:43.065Z,42.05
2022-07-27T16:31:14.484Z,41.06
2022-07-27T16:33:45.103Z,41.22
2022-07-27T16:36:13.331Z,42.19
2022-07-27T16:38:49.927Z,41.72
2022-07-27T16:41:22.024Z,41.60
2022-07-27T16:43:50.184Z,42.21
2022-07-27T16:46:18.377Z,42.29
2022-07-27T16:48:47.274Z,42.32
2022-07-27T16:51:16.336Z,42.98
2022-07-27T16:53:48.494Z,41.99
2022-07-27T16:56:18.169Z,42.22
2022-07-27T16:58:46.366Z,43.27
2022-07-27T17:01:22.277Z,43.93
2022-07-27T17:03:57.411Z,43.87
2022-07-27T17:06:27.054Z,44.25
2022-07-27T17:08:55.433Z,44.92
2022-07-27T17:11:23.751Z,45.84
2022-07-27T17:13:58.814Z,45.10
2022-07-27T17:16:28.920Z,44.90
2022-07-27T17:18:57.239Z,44.41
2022-07-27T17:21:25.746Z,44.47
2022-07-27T17:23:53.941Z,44.47
2022-07-27T17:26:22.802Z,44.65
2022-07-27T17:28:53.717Z,44.86
2022-07-27T17:31:22.045Z,45.18
2022-07-27T17:33:51.414Z,45.75
2022-07-27T17:36:20.359Z,46.42
2022-07-27T17:38:50.055Z,47.12
2022-07-27T17:41:24.038Z,47.79
2022-07-27T17:43:54.880Z,48.07
2022-07-27T17:46:24.989Z,48.22
2022-07-27T17:48:54.466Z,48.27
2022-07-27T17:51:25.565Z,48.81
2022-07-27T17:53:54.298Z,48.82
2022-07-27T17:56:22.485Z,49.18
2022-07-27T17:58:50.761Z,49.05
2022-07-27T18:01:46.466Z,48.74
2022-07-27T18:04:07.892Z,49.20
2022-07-27T18:06:36.483Z,49.78
2022-07-27T18:09:04.496Z,49.61
2022-07-27T18:11:32.465Z,49.75
2022-07-27T18:14:00.558Z,49.84
2022-07-27T18:16:28.840Z,49.65
2022-07-27T18:18:56.957Z,49.79
2022-07-27T18:21:24.996Z,49.81
2022-07-27T18:23:53.645Z,49.47
2022-07-27T18:26:22.459Z,49.85
2022-07-27T18:28:55.014Z,50.12
2022-07-27T18:31:24.924Z,50.59
2022-07-27T18:33:54.996Z,51.08
2022-07-27T18:36:23.264Z,51.37
2022-07-27T18:38:51.501Z,51.80
2022-07-27T18:41:19.656Z,51.36
2022-07-27T18:43:53.991Z,51.57
2022-07-27T18:46:23.169Z,51.96
2022-07-27T18:48:51.290Z,52.43
2022-07-27T18:51:22.133Z,52.89
2022-07-27T18:53:50.149Z,52.81
2022-07-27T18:56:18.299Z,53.23
2022-07-27T18:58:47.036Z,54.00
2022-07-27T19:01:15.215Z,54.83
2022-07-27T19:03:43.496Z,55.88
2022-07-27T19:06:12.619Z,57.08
2022-07-27T19:08:46.829Z,57.98
2022-07-27T19:11:15.611Z,59.07
2022-07-27T19:13:45.683Z,60.11
2022-07-27T19:16:13.707Z,60.61
2022-07-27T19:18:42.157Z,61.01
2022-07-27T19:21:10.107Z,61.62
2022-07-27T19:23:38.087Z,62.41
2022-07-27T19:26:07.074Z,62.90
2022-07-27T19:28:35.167Z,63.35
2022-07-27T19:31:03.175Z,63.86
2022-07-27T19:33:32.299Z,64.03
2022-07-27T19:36:00.459Z,64.30
2022-07-27T19:38:28.550Z,64.78
2022-07-27T19:40:57.177Z,64.86
2022-07-27T19:43:25.290Z,64.91
2022-07-27T19:45:53.357Z,65.08
2022-07-27T19:48:22.641Z,64.98
2022-07-27T19:50:50.755Z,65.41
2022-07-27T19:53:18.882Z,65.83
2022-07-27T19:55:47.025Z,66.11
2022-07-27T19:58:15.795Z,66.54
2022-07-27T20:00:46.503Z,66.56
2022-07-27T20:03:14.799Z,67.25
2022-07-27T20:05:42.793Z,67.25
2022-07-27T20:08:10.953Z,67.66
2022-07-27T20:10:40.140Z,68.61
2022-07-27T20:13:09.373Z,65.57
2022-07-27T20:15:37.510Z,64.73
2022-07-27T20:18:05.606Z,61.28
2022-07-27T20:20:33.722Z,59.28
2022-07-27T20:23:01.691Z,59.04
2022-07-27T20:25:29.679Z,57.77
2022-07-27T20:27:58.079Z,56.47
2022-07-27T20:30:27.030Z,55.55
2022-07-27T20:32:55.139Z,55.69
2022-07-27T20:35:23.738Z,55.00
2022-07-27T20:38:03.595Z,54.00
2022-07-27T20:40:32.185Z,54.56
2022-07-27T20:43:00.271Z,54.74
2022-07-27T20:45:28.553Z,54.18
2022-07-27T20:47:57.464Z,54.75
2022-07-27T20:50:25.700Z,55.16
2022-07-27T20:52:53.731Z,55.48
2022-07-27T20:55:21.813Z,55.59
2022-07-27T20:57:50.048Z,55.89
2022-07-27T21:00:19.431Z,55.91
2022-07-27T21:02:48.643Z,56.09
2022-07-27T21:05:18.774Z,56.45
2022-07-27T21:07:46.750Z,57.03
2022-07-27T21:10:14.750Z,57.48
2022-07-27T21:12:44.233Z,57.76
2022-07-27T21:15:13.616Z,58.66
2022-07-27T21:17:42.962Z,59.46
2022-07-27T21:20:11.666Z,59.59
2022-07-27T21:22:39.822Z,59.62
2022-07-27T21:25:08.249Z,59.84
2022-07-27T21:27:36.539Z,60.29
2022-07-27T21:30:07.572Z,60.88
2022-07-27T21:32:35.749Z,61.41
2022-07-27T21:35:06.902Z,61.69
2022-07-27T21:37:35.767Z,61.85
2022-07-27T21:40:03.992Z,61.94
2022-07-27T21:42:33.333Z,62.11
2022-07-27T21:45:01.817Z,62.49
2022-07-27T21:47:31.537Z,62.95
2022-07-27T21:49:59.761Z,62.98
2022-07-27T21:52:27.847Z,62.13
2022-07-27T21:54:55.872Z,61.22
2022-07-27T21:57:24.170Z,61.18
2022-07-27T21:59:52.257Z,61.03
2022-07-27T22:02:20.319Z,61.27
2022-07-27T22:04:48.393Z,61.22
2022-07-27T22:07:19.513Z,61.85
2022-07-27T22:09:49.265Z,61.90
2022-07-27T22:12:17.337Z,62.13
2022-07-27T22:14:45.360Z,61.51
2022-07-27T22:17:13.380Z,61.61
2022-07-27T22:19:41.600Z,61.63
2022-07-27T22:22:09.679Z,61.54
2022-07-27T22:24:38.278Z,61.77
2022-07-27T22:27:06.878Z,62.06
2022-07-27T22:29:37.921Z,62.08
2022-07-27T22:32:07.151Z,62.02
2022-07-27T22:34:35.116Z,62.40
2022-07-27T22:37:03.686Z,62.57
2022-07-27T22:39:31.838Z,62.75
2022-07-27T22:41:59.995Z,63.25
2022-07-27T22:44:28.119Z,63.62
2022-07-27T22:46:56.316Z,63.77
2022-07-27T22:49:24.637Z,63.92
2022-07-27T22:51:54.306Z,64.24
2022-07-27T22:54:23.021Z,64.44
2022-07-27T22:56:51.021Z,64.84
2022-07-27T22:59:19.625Z,65.02
2022-07-27T23:01:48.395Z,65.33
2022-07-27T23:04:17.685Z,65.47
2022-07-27T23:06:47.467Z,65.54
2022-07-27T23:09:16.420Z,64.89
2022-07-27T23:11:45.268Z,64.88
2022-07-27T23:14:13.905Z,64.83
2022-07-27T23:16:43.976Z,64.82
2022-07-27T23:19:12.116Z,65.13
2022-07-27T23:22:10.883Z,65.28
2022-07-27T23:24:46.475Z,65.77
2022-07-27T23:27:14.299Z,65.76
2022-07-27T23:29:44.710Z,65.68
2022-07-27T23:32:12.711Z,65.93
2022-07-27T23:34:40.711Z,65.92
2022-07-27T23:37:08.801Z,66.06
2022-07-27T23:39:36.785Z,66.41
2022-07-27T23:42:04.905Z,66.45
2022-07-27T23:44:32.968Z,67.02
2022-07-27T23:47:01.385Z,67.15
2022-07-27T23:49:29.444Z,67.82
2022-07-27T23:51:57.557Z,68.30
2022-07-27T23:54:25.776Z,68.65
2022-07-27T23:56:53.939Z,69.01
2022-07-27T23:59:21.994Z,69.23
